sensor_id;sensor_type;location;lat;lon;timestamp;temperature;humidity
12446;DHT22;6287;50.984;7.022;2022-09-19T00:01:31;9.50;99.90
12446;DHT22;6287;50.984;7.022;2022-09-19T00:04:12;9.50;99.90
12446;DHT22;6287;50.984;7.022;2022-09-19T00:09:10;9.60;99.90
12446;DHT22;6287;50.984;7.022;2022-09-19T00:11:42;9.60;99.90
12446;DHT22;6287;50.984;7.022;2022-09-19T00:14:10;9.60;99.90
12446;DHT22;6287;50.984;7.022;2022-09-19T00:16:43;9.60;99.90
12446;DHT22;6287;50.984;7.022;2022-09-19T00:19:17;9.60;99.90
12446;DHT22;6287;50.984;7.022;2022-09-19T00:21:44;9.70;99.90
12446;DHT22;6287;50.984;7.022;2022-09-19T00:24:16;11.70;99.90
12446;DHT22;6287;50.984;7.022;2022-09-19T00:29:31;9.60;99.90
12446;DHT22;6287;50.984;7.022;2022-09-19T00:31:59;9.60;99.90
12446;DHT22;6287;50.984;7.022;2022-09-19T00:34:25;9.60;99.90
12446;DHT22;6287;50.984;7.022;2022-09-19T00:36:51;9.60;99.90
12446;DHT22;6287;50.984;7.022;2022-09-19T00:39:18;9.60;99.90
12446;DHT22;6287;50.984;7.022;2022-09-19T00:46:56;9.70;99.90
12446;DHT22;6287;50.984;7.022;2022-09-19T00:49:26;9.60;99.90
12446;DHT22;6287;50.984;7.022;2022-09-19T00:51:55;9.60;99.90
12446;DHT22;6287;50.984;7.022;2022-09-19T00:54:27;9.60;99.90
12446;DHT22;6287;50.984;7.022;2022-09-19T00:56:55;9.60;99.90
12446;DHT22;6287;50.984;7.022;2022-09-19T00:59:26;9.60;99.90
12446;DHT22;6287;50.984;7.022;2022-09-19T01:01:55;9.70;99.90
12446;DHT22;6287;50.984;7.022;2022-09-19T01:04:24;9.70;99.90
12446;DHT22;6287;50.984;7.022;2022-09-19T01:17:50;9.80;99.90
12446;DHT22;6287;50.984;7.022;2022-09-19T01:25:54;9.80;99.90
12446;DHT22;6287;50.984;7.022;2022-09-19T01:28:31;9.80;99.90
12446;DHT22;6287;50.984;7.022;2022-09-19T01:31:11;9.80;99.90
12446;DHT22;6287;50.984;7.022;2022-09-19T01:34:25;9.80;99.90
12446;DHT22;6287;50.984;7.022;2022-09-19T01:37:04;9.80;99.90
12446;DHT22;6287;50.984;7.022;2022-09-19T01:39:35;9.90;99.90
12446;DHT22;6287;50.984;7.022;2022-09-19T01:42:12;9.90;99.90
12446;DHT22;6287;50.984;7.022;2022-09-19T01:44:38;9.90;99.90
12446;DHT22;6287;50.984;7.022;2022-09-19T01:58:11;9.70;99.90
12446;DHT22;6287;50.984;7.022;2022-09-19T02:00:45;9.70;99.90
12446;DHT22;6287;50.984;7.022;2022-09-19T02:06:52;9.70;99.90
12446;DHT22;6287;50.984;7.022;2022-09-19T02:09:44;9.60;99.90
12446;DHT22;6287;50.984;7.022;2022-09-19T02:12:14;9.60;99.90
12446;DHT22;6287;50.984;7.022;2022-09-19T02:14:46;9.60;99.90
12446;DHT22;6287;50.984;7.022;2022-09-19T02:17:19;9.60;99.90
12446;DHT22;6287;50.984;7.022;2022-09-19T02:19:55;9.60;99.90
12446;DHT22;6287;50.984;7.022;2022-09-19T02:22:32;9.60;99.90
12446;DHT22;6287;50.984;7.022;2022-09-19T02:25:07;9.60;99.90
12446;DHT22;6287;50.984;7.022;2022-09-19T02:27:45;9.60;99.90
12446;DHT22;6287;50.984;7.022;2022-09-19T02:30:15;9.60;99.90
12446;DHT22;6287;50.984;7.022;2022-09-19T02:35:15;9.60;99.90
12446;DHT22;6287;50.984;7.022;2022-09-19T02:37:43;9.60;99.90
12446;DHT22;6287;50.984;7.022;2022-09-19T02:40:25;9.70;99.90
12446;DHT22;6287;50.984;7.022;2022-09-19T02:50:42;9.60;99.90
12446;DHT22;6287;50.984;7.022;2022-09-19T02:53:17;9.60;99.90
12446;DHT22;6287;50.984;7.022;2022-09-19T02:55:49;9.60;99.90
12446;DHT22;6287;50.984;7.022;2022-09-19T02:58:17;9.60;99.90
12446;DHT22;6287;50.984;7.022;2022-09-19T03:00:48;9.60;99.90
12446;DHT22;6287;50.984;7.022;2022-09-19T03:03:42;9.60;99.90
12446;DHT22;6287;50.984;7.022;2022-09-19T03:06:32;9.60;99.90
12446;DHT22;6287;50.984;7.022;2022-09-19T03:09:02;9.50;99.90
12446;DHT22;6287;50.984;7.022;2022-09-19T03:11:35;9.50;99.90
12446;DHT22;6287;50.984;7.022;2022-09-19T03:14:03;9.40;99.90
12446;DHT22;6287;50.984;7.022;2022-09-19T03:16:33;9.50;99.90
12446;DHT22;6287;50.984;7.022;2022-09-19T03:19:04;9.50;99.90
12446;DHT22;6287;50.984;7.022;2022-09-19T03:21:35;9.50;99.90
12446;DHT22;6287;50.984;7.022;2022-09-19T03:24:04;9.50;99.90
12446;DHT22;6287;50.984;7.022;2022-09-19T03:26:34;9.50;99.90
12446;DHT22;6287;50.984;7.022;2022-09-19T03:29:05;9.50;99.90
12446;DHT22;6287;50.984;7.022;2022-09-19T03:31:34;9.50;99.90
12446;DHT22;6287;50.984;7.022;2022-09-19T03:34:02;9.60;99.90
12446;DHT22;6287;50.984;7.022;2022-09-19T03:36:33;9.50;99.90
12446;DHT22;6287;50.984;7.022;2022-09-19T03:38:59;9.60;99.90
12446;DHT22;6287;50.984;7.022;2022-09-19T03:41:27;9.60;99.90
12446;DHT22;6287;50.984;7.022;2022-09-19T03:43:55;9.60;99.90
12446;DHT22;6287;50.984;7.022;2022-09-19T03:46:25;9.70;99.90
12446;DHT22;6287;50.984;7.022;2022-09-19T03:48:53;9.70;99.90
12446;DHT22;6287;50.984;7.022;2022-09-19T03:51:19;11.20;99.90
12446;DHT22;6287;50.984;7.022;2022-09-19T03:53:50;9.70;99.90
12446;DHT22;6287;50.984;7.022;2022-09-19T03:56:18;9.70;99.90
12446;DHT22;6287;50.984;7.022;2022-09-19T03:58:44;9.70;99.90
12446;DHT22;6287;50.984;7.022;2022-09-19T04:01:10;9.70;99.90
12446;DHT22;6287;50.984;7.022;2022-09-19T04:03:40;9.70;99.90
12446;DHT22;6287;50.984;7.022;2022-09-19T04:06:07;9.80;99.90
12446;DHT22;6287;50.984;7.022;2022-09-19T04:10:59;9.80;99.90
12446;DHT22;6287;50.984;7.022;2022-09-19T04:13:25;9.80;99.90
12446;DHT22;6287;50.984;7.022;2022-09-19T04:15:53;9.80;99.90
12446;DHT22;6287;50.984;7.022;2022-09-19T04:18:20;9.80;99.90
12446;DHT22;6287;50.984;7.022;2022-09-19T04:20:46;9.80;99.90
12446;DHT22;6287;50.984;7.022;2022-09-19T04:23:17;9.70;99.90
12446;DHT22;6287;50.984;7.022;2022-09-19T04:25:43;9.80;99.90
12446;DHT22;6287;50.984;7.022;2022-09-19T04:28:11;9.80;99.90
12446;DHT22;6287;50.984;7.022;2022-09-19T04:30:40;9.70;99.90
12446;DHT22;6287;50.984;7.022;2022-09-19T04:33:08;9.80;99.90
12446;DHT22;6287;50.984;7.022;2022-09-19T04:35:37;9.80;99.90
12446;DHT22;6287;50.984;7.022;2022-09-19T04:38:11;9.80;99.90
12446;DHT22;6287;50.984;7.022;2022-09-19T04:40:46;9.80;99.90
12446;DHT22;6287;50.984;7.022;2022-09-19T04:43:16;9.80;99.90
12446;DHT22;6287;50.984;7.022;2022-09-19T04:48:19;9.80;99.90
12446;DHT22;6287;50.984;7.022;2022-09-19T04:50:49;9.70;99.90
12446;DHT22;6287;50.984;7.022;2022-09-19T04:53:17;9.70;99.90
12446;DHT22;6287;50.984;7.022;2022-09-19T04:55:47;9.70;99.90
12446;DHT22;6287;50.984;7.022;2022-09-19T04:58:14;9.70;99.90
12446;DHT22;6287;50.984;7.022;2022-09-19T05:00:41;9.70;99.90
12446;DHT22;6287;50.984;7.022;2022-09-19T05:03:12;9.70;99.90
12446;DHT22;6287;50.984;7.022;2022-09-19T05:05:39;9.70;99.90
12446;DHT22;6287;50.984;7.022;2022-09-19T05:08:10;9.70;99.90
12446;DHT22;6287;50.984;7.022;2022-09-19T05:10:39;9.70;99.90
12446;DHT22;6287;50.984;7.022;2022-09-19T05:13:07;9.70;99.90
12446;DHT22;6287;50.984;7.022;2022-09-19T05:15:33;9.60;99.90
12446;DHT22;6287;50.984;7.022;2022-09-19T05:18:04;9.70;99.90
12446;DHT22;6287;50.984;7.022;2022-09-19T05:20:29;9.60;99.90
12446;DHT22;6287;50.984;7.022;2022-09-19T05:22:57;9.70;99.90
12446;DHT22;6287;50.984;7.022;2022-09-19T05:25:27;9.70;99.90
12446;DHT22;6287;50.984;7.022;2022-09-19T05:27:55;9.80;99.90
12446;DHT22;6287;50.984;7.022;2022-09-19T05:30:21;9.70;99.90
12446;DHT22;6287;50.984;7.022;2022-09-19T05:32:48;9.70;99.90
12446;DHT22;6287;50.984;7.022;2022-09-19T05:35:16;9.80;99.90
12446;DHT22;6287;50.984;7.022;2022-09-19T05:37:44;9.80;99.90
12446;DHT22;6287;50.984;7.022;2022-09-19T05:40:11;9.90;99.90
12446;DHT22;6287;50.984;7.022;2022-09-19T05:42:41;9.90;99.90
12446;DHT22;6287;50.984;7.022;2022-09-19T05:45:12;9.90;99.90
12446;DHT22;6287;50.984;7.022;2022-09-19T05:47:38;10.00;99.90
12446;DHT22;6287;50.984;7.022;2022-09-19T05:50:10;10.00;99.90
12446;DHT22;6287;50.984;7.022;2022-09-19T05:52:40;10.00;99.90
12446;DHT22;6287;50.984;7.022;2022-09-19T05:55:28;10.10;99.90
12446;DHT22;6287;50.984;7.022;2022-09-19T05:57:56;10.10;99.90
12446;DHT22;6287;50.984;7.022;2022-09-19T06:00:25;10.20;99.90
12446;DHT22;6287;50.984;7.022;2022-09-19T06:03:01;10.20;99.90
12446;DHT22;6287;50.984;7.022;2022-09-19T06:05:30;10.30;99.90
12446;DHT22;6287;50.984;7.022;2022-09-19T06:07:58;10.30;99.90
12446;DHT22;6287;50.984;7.022;2022-09-19T06:10:26;10.30;99.90
12446;DHT22;6287;50.984;7.022;2022-09-19T06:12:56;10.30;99.90
12446;DHT22;6287;50.984;7.022;2022-09-19T06:15:22;10.40;99.90
12446;DHT22;6287;50.984;7.022;2022-09-19T06:17:56;10.50;99.90
12446;DHT22;6287;50.984;7.022;2022-09-19T06:20:22;10.50;99.90
12446;DHT22;6287;50.984;7.022;2022-09-19T06:23:00;10.50;99.90
12446;DHT22;6287;50.984;7.022;2022-09-19T06:25:30;10.60;99.90
12446;DHT22;6287;50.984;7.022;2022-09-19T06:28:00;10.60;99.90
12446;DHT22;6287;50.984;7.022;2022-09-19T06:30:27;10.70;99.90
12446;DHT22;6287;50.984;7.022;2022-09-19T06:32:53;10.70;99.90
12446;DHT22;6287;50.984;7.022;2022-09-19T06:35:20;10.80;99.90
12446;DHT22;6287;50.984;7.022;2022-09-19T06:37:49;10.90;99.90
12446;DHT22;6287;50.984;7.022;2022-09-19T06:40:16;11.00;99.90
12446;DHT22;6287;50.984;7.022;2022-09-19T06:43:02;11.00;99.90
12446;DHT22;6287;50.984;7.022;2022-09-19T06:45:33;11.00;99.90
12446;DHT22;6287;50.984;7.022;2022-09-19T06:48:06;11.20;99.90
12446;DHT22;6287;50.984;7.022;2022-09-19T06:50:35;11.30;99.90
12446;DHT22;6287;50.984;7.022;2022-09-19T06:53:03;11.40;99.90
12446;DHT22;6287;50.984;7.022;2022-09-19T06:55:32;11.40;99.90
12446;DHT22;6287;50.984;7.022;2022-09-19T06:58:05;11.50;99.90
12446;DHT22;6287;50.984;7.022;2022-09-19T07:00:33;11.60;99.90
12446;DHT22;6287;50.984;7.022;2022-09-19T07:03:06;11.70;99.90
12446;DHT22;6287;50.984;7.022;2022-09-19T07:05:34;11.70;99.90
12446;DHT22;6287;50.984;7.022;2022-09-19T07:08:00;11.80;99.90
12446;DHT22;6287;50.984;7.022;2022-09-19T07:12:57;11.90;99.90
12446;DHT22;6287;50.984;7.022;2022-09-19T07:15:31;11.90;99.90
12446;DHT22;6287;50.984;7.022;2022-09-19T07:18:00;12.10;99.90
12446;DHT22;6287;50.984;7.022;2022-09-19T07:20:28;12.20;99.90
12446;DHT22;6287;50.984;7.022;2022-09-19T07:23:05;12.20;99.90
12446;DHT22;6287;50.984;7.022;2022-09-19T07:25:35;12.30;99.90
12446;DHT22;6287;50.984;7.022;2022-09-19T07:28:08;12.50;99.90
12446;DHT22;6287;50.984;7.022;2022-09-19T07:30:35;12.70;99.90
12446;DHT22;6287;50.984;7.022;2022-09-19T07:33:05;12.70;99.90
12446;DHT22;6287;50.984;7.022;2022-09-19T07:35:34;12.80;99.90
12446;DHT22;6287;50.984;7.022;2022-09-19T07:38:00;13.00;99.90
12446;DHT22;6287;50.984;7.022;2022-09-19T07:40:29;13.00;99.90
12446;DHT22;6287;50.984;7.022;2022-09-19T07:42:59;13.00;99.90
12446;DHT22;6287;50.984;7.022;2022-09-19T07:45:27;13.00;99.90
12446;DHT22;6287;50.984;7.022;2022-09-19T07:47:53;13.00;99.90
12446;DHT22;6287;50.984;7.022;2022-09-19T07:50:21;13.20;99.90
12446;DHT22;6287;50.984;7.022;2022-09-19T07:52:57;13.30;99.90
12446;DHT22;6287;50.984;7.022;2022-09-19T07:55:25;13.30;99.90
12446;DHT22;6287;50.984;7.022;2022-09-19T07:57:55;13.50;99.90
12446;DHT22;6287;50.984;7.022;2022-09-19T08:00:27;13.60;99.90
12446;DHT22;6287;50.984;7.022;2022-09-19T08:03:16;13.70;99.90
12446;DHT22;6287;50.984;7.022;2022-09-19T08:05:51;13.70;99.90
12446;DHT22;6287;50.984;7.022;2022-09-19T08:08:22;13.80;99.90
12446;DHT22;6287;50.984;7.022;2022-09-19T08:10:48;13.90;99.90
12446;DHT22;6287;50.984;7.022;2022-09-19T08:13:17;14.10;99.90
12446;DHT22;6287;50.984;7.022;2022-09-19T08:15:45;14.20;99.90
12446;DHT22;6287;50.984;7.022;2022-09-19T08:18:16;14.30;99.90
12446;DHT22;6287;50.984;7.022;2022-09-19T08:20:42;14.30;99.90
12446;DHT22;6287;50.984;7.022;2022-09-19T08:23:15;14.40;99.90
12446;DHT22;6287;50.984;7.022;2022-09-19T08:25:43;14.40;99.90
12446;DHT22;6287;50.984;7.022;2022-09-19T08:28:15;14.60;99.90
12446;DHT22;6287;50.984;7.022;2022-09-19T08:30:44;14.70;99.90
12446;DHT22;6287;50.984;7.022;2022-09-19T08:33:11;14.70;99.90
12446;DHT22;6287;50.984;7.022;2022-09-19T08:35:42;14.70;99.90
12446;DHT22;6287;50.984;7.022;2022-09-19T08:38:09;14.80;99.90
12446;DHT22;6287;50.984;7.022;2022-09-19T08:46:32;15.10;99.90
12446;DHT22;6287;50.984;7.022;2022-09-19T08:49:05;15.20;99.90
12446;DHT22;6287;50.984;7.022;2022-09-19T08:54:34;15.60;99.90
12446;DHT22;6287;50.984;7.022;2022-09-19T08:57:28;15.70;99.90
12446;DHT22;6287;50.984;7.022;2022-09-19T09:00:07;16.20;99.90
12446;DHT22;6287;50.984;7.022;2022-09-19T09:11:18;16.30;99.90
12446;DHT22;6287;50.984;7.022;2022-09-19T09:16:40;16.50;99.90
12446;DHT22;6287;50.984;7.022;2022-09-19T09:22:15;16.60;99.90
12446;DHT22;6287;50.984;7.022;2022-09-19T09:24:49;16.60;99.90
12446;DHT22;6287;50.984;7.022;2022-09-19T09:27:23;16.70;99.90
12446;DHT22;6287;50.984;7.022;2022-09-19T09:29:59;17.00;99.90
12446;DHT22;6287;50.984;7.022;2022-09-19T09:32:31;17.00;99.90
12446;DHT22;6287;50.984;7.022;2022-09-19T09:43:03;17.70;99.90
12446;DHT22;6287;50.984;7.022;2022-09-19T09:45:47;17.80;99.90
12446;DHT22;6287;50.984;7.022;2022-09-19T09:48:23;17.80;99.90
12446;DHT22;6287;50.984;7.022;2022-09-19T09:56:31;18.10;99.90
12446;DHT22;6287;50.984;7.022;2022-09-19T10:02:52;18.10;99.90
12446;DHT22;6287;50.984;7.022;2022-09-19T10:05:46;18.00;99.90
12446;DHT22;6287;50.984;7.022;2022-09-19T10:08:24;17.90;99.90
12446;DHT22;6287;50.984;7.022;2022-09-19T10:11:18;17.90;99.90
12446;DHT22;6287;50.984;7.022;2022-09-19T10:13:50;17.90;99.90
12446;DHT22;6287;50.984;7.022;2022-09-19T10:16:22;17.80;99.90
12446;DHT22;6287;50.984;7.022;2022-09-19T10:18:52;17.80;99.90
12446;DHT22;6287;50.984;7.022;2022-09-19T10:21:21;17.80;99.90
12446;DHT22;6287;50.984;7.022;2022-09-19T10:23:48;17.90;99.90
12446;DHT22;6287;50.984;7.022;2022-09-19T10:26:26;17.90;99.90
12446;DHT22;6287;50.984;7.022;2022-09-19T10:28:57;18.10;99.90
12446;DHT22;6287;50.984;7.022;2022-09-19T10:31:35;18.00;99.90
12446;DHT22;6287;50.984;7.022;2022-09-19T10:36:44;18.10;99.90
12446;DHT22;6287;50.984;7.022;2022-09-19T10:39:14;18.10;99.90
12446;DHT22;6287;50.984;7.022;2022-09-19T10:41:47;18.80;99.90
12446;DHT22;6287;50.984;7.022;2022-09-19T10:44:21;19.00;99.90
12446;DHT22;6287;50.984;7.022;2022-09-19T10:46:55;19.20;99.90
12446;DHT22;6287;50.984;7.022;2022-09-19T10:49:27;19.20;99.90
12446;DHT22;6287;50.984;7.022;2022-09-19T10:51:55;19.60;99.90
12446;DHT22;6287;50.984;7.022;2022-09-19T10:54:32;19.60;99.90
12446;DHT22;6287;50.984;7.022;2022-09-19T10:59:54;19.10;99.90
12446;DHT22;6287;50.984;7.022;2022-09-19T11:04:57;19.00;99.90
12446;DHT22;6287;50.984;7.022;2022-09-19T11:07:50;18.90;99.90
12446;DHT22;6287;50.984;7.022;2022-09-19T11:10:36;18.60;99.90
12446;DHT22;6287;50.984;7.022;2022-09-19T11:13:20;18.30;99.90
12446;DHT22;6287;50.984;7.022;2022-09-19T11:16:36;18.30;99.90
12446;DHT22;6287;50.984;7.022;2022-09-19T11:22:01;19.20;99.90
12446;DHT22;6287;50.984;7.022;2022-09-19T11:24:49;20.20;99.90
12446;DHT22;6287;50.984;7.022;2022-09-19T11:30:15;20.70;99.90
12446;DHT22;6287;50.984;7.022;2022-09-19T11:33:04;21.00;99.90
12446;DHT22;6287;50.984;7.022;2022-09-19T12:08:11;18.90;99.90
12446;DHT22;6287;50.984;7.022;2022-09-19T12:10:46;18.90;99.90
12446;DHT22;6287;50.984;7.022;2022-09-19T12:13:37;18.70;99.90
12446;DHT22;6287;50.984;7.022;2022-09-19T12:16:14;19.10;99.90
12446;DHT22;6287;50.984;7.022;2022-09-19T12:18:49;19.10;99.90
12446;DHT22;6287;50.984;7.022;2022-09-19T12:21:21;20.30;99.90
12446;DHT22;6287;50.984;7.022;2022-09-19T12:24:00;20.50;99.90
12446;DHT22;6287;50.984;7.022;2022-09-19T12:27:00;21.30;99.90
12446;DHT22;6287;50.984;7.022;2022-09-19T12:32:44;21.80;99.90
12446;DHT22;6287;50.984;7.022;2022-09-19T12:35:36;22.40;99.90
12446;DHT22;6287;50.984;7.022;2022-09-19T12:43:54;20.40;99.90
12446;DHT22;6287;50.984;7.022;2022-09-19T12:51:52;17.30;99.90
12446;DHT22;6287;50.984;7.022;2022-09-19T12:59:44;15.20;99.90
12446;DHT22;6287;50.984;7.022;2022-09-19T13:02:29;15.10;99.90
12446;DHT22;6287;50.984;7.022;2022-09-19T13:08:00;14.30;99.90
12446;DHT22;6287;50.984;7.022;2022-09-19T13:10:37;14.20;99.90
12446;DHT22;6287;50.984;7.022;2022-09-19T13:15:55;14.00;99.90
12446;DHT22;6287;50.984;7.022;2022-09-19T13:18:26;14.00;99.90
12446;DHT22;6287;50.984;7.022;2022-09-19T13:21:20;14.00;99.90
12446;DHT22;6287;50.984;7.022;2022-09-19T13:24:05;14.10;99.90
12446;DHT22;6287;50.984;7.022;2022-09-19T13:26:36;14.00;99.90
12446;DHT22;6287;50.984;7.022;2022-09-19T13:34:43;14.00;99.90
12446;DHT22;6287;50.984;7.022;2022-09-19T13:51:05;14.30;99.90
12446;DHT22;6287;50.984;7.022;2022-09-19T13:53:44;14.40;99.90
12446;DHT22;6287;50.984;7.022;2022-09-19T13:56:28;14.40;99.90
12446;DHT22;6287;50.984;7.022;2022-09-19T14:02:00;14.60;99.90
12446;DHT22;6287;50.984;7.022;2022-09-19T14:04:57;14.60;99.90
12446;DHT22;6287;50.984;7.022;2022-09-19T14:12:59;14.80;99.90
12446;DHT22;6287;50.984;7.022;2022-09-19T14:20:52;15.00;99.90
12446;DHT22;6287;50.984;7.022;2022-09-19T14:23:30;15.20;99.90
12446;DHT22;6287;50.984;7.022;2022-09-19T14:34:58;17.70;99.90
12446;DHT22;6287;50.984;7.022;2022-09-19T14:47:05;19.70;99.90
12446;DHT22;6287;50.984;7.022;2022-09-19T14:52:26;19.40;99.90
12446;DHT22;6287;50.984;7.022;2022-09-19T14:55:04;19.10;99.90
12446;DHT22;6287;50.984;7.022;2022-09-19T14:57:49;18.50;99.90
12446;DHT22;6287;50.984;7.022;2022-09-19T15:00:29;18.00;99.90
12446;DHT22;6287;50.984;7.022;2022-09-19T15:03:09;18.00;99.90
12446;DHT22;6287;50.984;7.022;2022-09-19T15:05:37;17.60;99.90
12446;DHT22;6287;50.984;7.022;2022-09-19T15:08:27;17.30;99.90
12446;DHT22;6287;50.984;7.022;2022-09-19T15:11:00;17.00;99.90
12446;DHT22;6287;50.984;7.022;2022-09-19T15:13:31;16.80;99.90
12446;DHT22;6287;50.984;7.022;2022-09-19T15:16:08;16.70;99.90
12446;DHT22;6287;50.984;7.022;2022-09-19T15:18:41;16.50;99.90
12446;DHT22;6287;50.984;7.022;2022-09-19T15:21:12;16.30;99.90
12446;DHT22;6287;50.984;7.022;2022-09-19T15:23:40;16.10;99.90
12446;DHT22;6287;50.984;7.022;2022-09-19T15:26:12;15.90;99.90
12446;DHT22;6287;50.984;7.022;2022-09-19T15:28:41;15.80;99.90
12446;DHT22;6287;50.984;7.022;2022-09-19T15:31:25;15.70;99.90
12446;DHT22;6287;50.984;7.022;2022-09-19T15:36:24;15.50;99.90
12446;DHT22;6287;50.984;7.022;2022-09-19T15:38:52;15.50;99.90
12446;DHT22;6287;50.984;7.022;2022-09-19T15:41:22;15.50;99.90
12446;DHT22;6287;50.984;7.022;2022-09-19T15:43:55;15.40;99.90
12446;DHT22;6287;50.984;7.022;2022-09-19T15:49:43;15.30;99.90
12446;DHT22;6287;50.984;7.022;2022-09-19T15:51:55;15.30;99.90
12446;DHT22;6287;50.984;7.022;2022-09-19T15:54:23;16.10;99.90
12446;DHT22;6287;50.984;7.022;2022-09-19T15:56:58;17.00;99.90
12446;DHT22;6287;50.984;7.022;2022-09-19T15:59:43;17.10;99.90
12446;DHT22;6287;50.984;7.022;2022-09-19T16:02:19;17.10;99.90
12446;DHT22;6287;50.984;7.022;2022-09-19T16:07:36;16.80;99.90
12446;DHT22;6287;50.984;7.022;2022-09-19T16:10:27;16.60;99.90
12446;DHT22;6287;50.984;7.022;2022-09-19T16:12:58;16.50;99.90
12446;DHT22;6287;50.984;7.022;2022-09-19T16:15:33;16.20;99.90
12446;DHT22;6287;50.984;7.022;2022-09-19T16:25:33;15.70;99.90
12446;DHT22;6287;50.984;7.022;2022-09-19T16:28:16;15.60;99.90
12446;DHT22;6287;50.984;7.022;2022-09-19T16:33:32;15.50;99.90
12446;DHT22;6287;50.984;7.022;2022-09-19T16:36:12;15.60;99.90
12446;DHT22;6287;50.984;7.022;2022-09-19T16:39:11;15.60;99.90
12446;DHT22;6287;50.984;7.022;2022-09-19T16:42:06;15.60;99.90
12446;DHT22;6287;50.984;7.022;2022-09-19T16:44:38;15.50;99.90
12446;DHT22;6287;50.984;7.022;2022-09-19T16:49:40;15.40;99.90
12446;DHT22;6287;50.984;7.022;2022-09-19T16:52:18;15.30;99.90
12446;DHT22;6287;50.984;7.022;2022-09-19T16:54:52;15.20;99.90
12446;DHT22;6287;50.984;7.022;2022-09-19T16:57:20;15.20;99.90
12446;DHT22;6287;50.984;7.022;2022-09-19T16:59:48;15.10;99.90
12446;DHT22;6287;50.984;7.022;2022-09-19T17:02:26;15.00;99.90
12446;DHT22;6287;50.984;7.022;2022-09-19T17:04:56;14.90;99.90
12446;DHT22;6287;50.984;7.022;2022-09-19T17:09:50;14.80;99.90
12446;DHT22;6287;50.984;7.022;2022-09-19T17:12:17;14.80;99.90
12446;DHT22;6287;50.984;7.022;2022-09-19T17:14:46;14.70;99.90
12446;DHT22;6287;50.984;7.022;2022-09-19T17:17:17;14.70;99.90
12446;DHT22;6287;50.984;7.022;2022-09-19T17:19:44;14.60;99.90
12446;DHT22;6287;50.984;7.022;2022-09-19T17:22:17;14.60;99.90
12446;DHT22;6287;50.984;7.022;2022-09-19T17:24:44;14.50;99.90
12446;DHT22;6287;50.984;7.022;2022-09-19T17:27:11;14.50;99.90
12446;DHT22;6287;50.984;7.022;2022-09-19T17:29:37;14.50;99.90
12446;DHT22;6287;50.984;7.022;2022-09-19T17:32:03;14.40;99.90
12446;DHT22;6287;50.984;7.022;2022-09-19T17:34:29;14.30;99.90
12446;DHT22;6287;50.984;7.022;2022-09-19T17:39:24;14.10;99.90
12446;DHT22;6287;50.984;7.022;2022-09-19T17:41:51;14.10;99.90
12446;DHT22;6287;50.984;7.022;2022-09-19T17:44:19;14.10;99.90
12446;DHT22;6287;50.984;7.022;2022-09-19T17:46:45;14.10;99.90
12446;DHT22;6287;50.984;7.022;2022-09-19T17:49:11;14.00;99.90
12446;DHT22;6287;50.984;7.022;2022-09-19T17:54:06;13.90;99.90
12446;DHT22;6287;50.984;7.022;2022-09-19T17:56:36;13.90;99.90
12446;DHT22;6287;50.984;7.022;2022-09-19T17:59:03;13.80;99.90
12446;DHT22;6287;50.984;7.022;2022-09-19T18:01:31;13.80;99.90
12446;DHT22;6287;50.984;7.022;2022-09-19T18:04:16;13.80;99.90
12446;DHT22;6287;50.984;7.022;2022-09-19T18:06:44;13.80;99.90
12446;DHT22;6287;50.984;7.022;2022-09-19T18:09:11;13.80;99.90
12446;DHT22;6287;50.984;7.022;2022-09-19T18:11:37;13.70;99.90
12446;DHT22;6287;50.984;7.022;2022-09-19T18:14:07;13.70;99.90
12446;DHT22;6287;50.984;7.022;2022-09-19T18:16:34;13.60;99.90
12446;DHT22;6287;50.984;7.022;2022-09-19T18:19:01;13.40;99.90
12446;DHT22;6287;50.984;7.022;2022-09-19T18:21:27;13.40;99.90
12446;DHT22;6287;50.984;7.022;2022-09-19T18:23:55;13.40;99.90
12446;DHT22;6287;50.984;7.022;2022-09-19T18:28:57;13.40;99.90
12446;DHT22;6287;50.984;7.022;2022-09-19T18:31:24;13.30;99.90
12446;DHT22;6287;50.984;7.022;2022-09-19T18:33:54;13.40;99.90
12446;DHT22;6287;50.984;7.022;2022-09-19T18:36:22;13.40;99.90
12446;DHT22;6287;50.984;7.022;2022-09-19T18:38:52;13.40;99.90
12446;DHT22;6287;50.984;7.022;2022-09-19T18:41:27;13.40;99.90
12446;DHT22;6287;50.984;7.022;2022-09-19T18:43:55;13.40;99.90
12446;DHT22;6287;50.984;7.022;2022-09-19T18:46:23;13.50;99.90
12446;DHT22;6287;50.984;7.022;2022-09-19T18:48:51;13.40;99.90
12446;DHT22;6287;50.984;7.022;2022-09-19T18:51:20;13.40;99.90
12446;DHT22;6287;50.984;7.022;2022-09-19T18:53:48;13.40;99.90
12446;DHT22;6287;50.984;7.022;2022-09-19T18:56:13;13.30;99.90
12446;DHT22;6287;50.984;7.022;2022-09-19T18:58:42;13.40;99.90
12446;DHT22;6287;50.984;7.022;2022-09-19T19:01:09;13.40;99.90
12446;DHT22;6287;50.984;7.022;2022-09-19T19:03:38;13.40;99.90
12446;DHT22;6287;50.984;7.022;2022-09-19T19:06:10;13.30;99.90
12446;DHT22;6287;50.984;7.022;2022-09-19T19:08:37;13.20;99.90
12446;DHT22;6287;50.984;7.022;2022-09-19T19:11:14;13.20;99.90
12446;DHT22;6287;50.984;7.022;2022-09-19T19:13:41;13.20;99.90
12446;DHT22;6287;50.984;7.022;2022-09-19T19:16:11;13.20;99.90
12446;DHT22;6287;50.984;7.022;2022-09-19T19:18:37;13.10;99.90
12446;DHT22;6287;50.984;7.022;2022-09-19T19:21:09;13.20;99.90
12446;DHT22;6287;50.984;7.022;2022-09-19T19:23:38;13.10;99.90
12446;DHT22;6287;50.984;7.022;2022-09-19T19:26:08;13.10;99.90
12446;DHT22;6287;50.984;7.022;2022-09-19T19:28:37;13.10;99.90
12446;DHT22;6287;50.984;7.022;2022-09-19T19:31:05;13.10;99.90
12446;DHT22;6287;50.984;7.022;2022-09-19T19:33:31;13.10;99.90
12446;DHT22;6287;50.984;7.022;2022-09-19T19:36:04;13.10;99.90
12446;DHT22;6287;50.984;7.022;2022-09-19T19:38:43;13.00;99.90
12446;DHT22;6287;50.984;7.022;2022-09-19T19:41:14;13.00;99.90
12446;DHT22;6287;50.984;7.022;2022-09-19T19:43:43;12.90;99.90
12446;DHT22;6287;50.984;7.022;2022-09-19T19:46:11;12.90;99.90
12446;DHT22;6287;50.984;7.022;2022-09-19T19:48:38;12.90;99.90
12446;DHT22;6287;50.984;7.022;2022-09-19T19:51:07;12.90;99.90
12446;DHT22;6287;50.984;7.022;2022-09-19T19:53:36;12.80;99.90
12446;DHT22;6287;50.984;7.022;2022-09-19T19:56:05;12.80;99.90
12446;DHT22;6287;50.984;7.022;2022-09-19T19:58:31;12.80;99.90
12446;DHT22;6287;50.984;7.022;2022-09-19T20:01:05;12.70;99.90
12446;DHT22;6287;50.984;7.022;2022-09-19T20:03:35;12.80;99.90
12446;DHT22;6287;50.984;7.022;2022-09-19T20:06:02;12.70;99.90
12446;DHT22;6287;50.984;7.022;2022-09-19T20:08:32;12.70;99.90
12446;DHT22;6287;50.984;7.022;2022-09-19T20:11:01;12.70;99.90
12446;DHT22;6287;50.984;7.022;2022-09-19T20:13:28;12.60;99.90
12446;DHT22;6287;50.984;7.022;2022-09-19T20:16:07;12.60;99.90
12446;DHT22;6287;50.984;7.022;2022-09-19T20:18:36;12.60;99.90
12446;DHT22;6287;50.984;7.022;2022-09-19T20:21:05;12.60;99.90
12446;DHT22;6287;50.984;7.022;2022-09-19T20:23:35;12.60;99.90
12446;DHT22;6287;50.984;7.022;2022-09-19T20:26:04;12.60;99.90
12446;DHT22;6287;50.984;7.022;2022-09-19T20:28:30;12.60;99.90
12446;DHT22;6287;50.984;7.022;2022-09-19T20:31:07;12.50;99.90
12446;DHT22;6287;50.984;7.022;2022-09-19T20:33:39;12.50;99.90
12446;DHT22;6287;50.984;7.022;2022-09-19T20:38:34;12.50;99.90
12446;DHT22;6287;50.984;7.022;2022-09-19T20:41:00;12.40;99.90